createdAt,value
2023-04-15T00:04:28.404Z,27.68
2023-04-15T00:09:31.115Z,27.72
2023-04-15T00:14:35.142Z,28.26
2023-04-15T00:19:37.470Z,27.93
2023-04-15T00:24:40.451Z,27.65
2023-04-15T00:29:42.948Z,28.11
2023-04-15T00:34:45.953Z,28.24
2023-04-15T00:39:48.334Z,28.19
2023-04-15T00:44:50.801Z,28.26
2023-04-15T00:49:53.714Z,28.14
2023-04-15T00:54:56.012Z,27.88
2023-04-15T00:59:58.689Z,27.99
2023-04-15T01:05:01.361Z,28.03
2023-04-15T01:10:05.093Z,28.46
2023-04-15T01:15:08.452Z,28.33
2023-04-15T01:20:11.954Z,28.47
2023-04-15T01:25:19.706Z,28.80
2023-04-15T01:30:22.198Z,28.70
2023-04-15T01:35:24.528Z,28.74
2023-04-15T01:40:27.034Z,28.54
2023-04-15T01:45:30.619Z,28.57
2023-04-15T01:50:34.469Z,28.66
2023-04-15T01:55:38.043Z,28.79
2023-04-15T02:00:45.817Z,28.58
2023-04-15T02:05:49.672Z,29.01
2023-04-15T02:10:53.259Z,28.86
2023-04-15T02:15:57.809Z,29.00
2023-04-15T02:21:01.450Z,29.19
2023-04-15T02:26:04.955Z,29.03
2023-04-15T02:31:09.965Z,28.92
2023-04-15T02:36:13.755Z,29.25
2023-04-15T02:41:17.785Z,29.23
2023-04-15T02:46:23.344Z,29.16
2023-04-15T02:51:26.984Z,29.41
2023-04-15T02:56:31.298Z,29.43
2023-04-15T03:01:34.942Z,29.59
2023-04-15T03:06:38.558Z,29.94
2023-04-15T03:11:43.992Z,29.78
2023-04-15T03:16:47.534Z,29.79
2023-04-15T03:21:53.408Z,29.68
2023-04-15T03:26:58.184Z,29.89
2023-04-15T03:32:02.219Z,29.87
2023-04-15T03:37:09.760Z,29.96
2023-04-15T03:42:13.397Z,30.28
2023-04-15T03:47:16.901Z,29.83
2023-04-15T03:52:21.792Z,29.79
2023-04-15T03:57:25.335Z,29.94
2023-04-15T04:02:29.026Z,29.89
2023-04-15T04:07:32.749Z,29.89
2023-04-15T04:12:36.387Z,29.77
2023-04-15T04:17:40.025Z,30.24
2023-04-15T04:22:43.617Z,29.92
2023-04-15T04:27:47.477Z,29.99
2023-04-15T04:32:52.015Z,29.97
2023-04-15T04:37:55.636Z,30.08
2023-04-15T04:42:59.241Z,29.78
2023-04-15T04:48:02.901Z,29.91
2023-04-15T04:53:06.582Z,29.73
2023-04-15T04:58:10.109Z,30.01
2023-04-15T05:03:13.860Z,29.66
2023-04-15T05:08:17.481Z,29.80
2023-04-15T05:13:22.791Z,29.72
2023-04-15T05:18:26.516Z,29.82
2023-04-15T05:23:30.076Z,29.47
2023-04-15T05:28:33.626Z,29.84
2023-04-15T05:33:37.423Z,29.86
2023-04-15T05:38:41.390Z,29.38
2023-04-15T05:43:46.397Z,29.52
2023-04-15T05:48:49.969Z,29.72
2023-04-15T05:53:53.651Z,29.11
2023-04-15T05:58:57.259Z,29.13
2023-04-15T06:04:00.854Z,29.25
2023-04-15T06:09:05.101Z,29.43
2023-04-15T06:14:08.758Z,29.13
2023-04-15T06:19:12.762Z,28.78
2023-04-15T06:24:16.497Z,29.02
2023-04-15T06:29:20.041Z,28.93
2023-04-15T06:34:23.666Z,28.43
2023-04-15T06:39:27.418Z,28.74
2023-04-15T06:44:33.295Z,28.53
2023-04-15T06:49:37.507Z,28.38
2023-04-15T06:54:41.255Z,28.54
2023-04-15T06:59:44.763Z,28.22
2023-04-15T07:25:01.769Z,27.53
2023-04-15T07:30:05.855Z,27.92
2023-04-15T07:35:10.136Z,27.60
2023-04-15T07:40:15.010Z,27.43
2023-04-15T07:45:18.649Z,26.64
2023-04-15T07:50:23.359Z,26.34
2023-04-15T07:55:28.253Z,26.42
2023-04-15T08:00:32.487Z,26.46
2023-04-15T08:05:35.970Z,26.01
2023-04-15T08:10:39.475Z,25.38
2023-04-15T08:15:43.701Z,24.86
2023-04-15T08:20:48.108Z,24.89
2023-04-15T08:25:51.616Z,24.19
2023-04-15T08:30:55.967Z,24.37
2023-04-15T08:35:59.498Z,24.26
2023-04-15T08:41:26.952Z,23.62
2023-04-15T08:46:33.216Z,23.96
2023-04-15T08:51:37.054Z,23.97
2023-04-15T08:56:41.109Z,23.99
2023-04-15T09:01:44.699Z,24.09
2023-04-15T09:06:48.458Z,23.45
2023-04-15T09:11:51.989Z,23.21
2023-04-15T09:17:28.470Z,22.48
2023-04-15T09:23:02.661Z,22.29
2023-04-15T09:28:06.660Z,22.76
2023-04-15T09:33:11.348Z,22.73
2023-04-15T09:38:15.050Z,22.88
2023-04-15T09:43:18.908Z,22.36
2023-04-15T09:48:26.830Z,22.05
2023-04-15T09:53:31.819Z,22.44
2023-04-15T09:58:37.501Z,22.03
2023-04-15T10:03:42.665Z,21.62
2023-04-15T10:08:46.768Z,21.85
2023-04-15T10:13:51.584Z,21.69
2023-04-15T10:18:56.861Z,21.44
2023-04-15T10:24:02.387Z,21.27
2023-04-15T10:29:06.498Z,21.59
2023-04-15T10:34:10.531Z,21.44
2023-04-15T10:39:45.641Z,21.26
2023-04-15T10:44:52.301Z,20.98
2023-04-15T10:50:00.839Z,21.21
2023-04-15T10:55:16.369Z,20.24
2023-04-15T11:00:21.017Z,20.77
2023-04-15T11:05:54.014Z,20.93
2023-04-15T11:10:57.694Z,20.87
2023-04-15T11:16:02.231Z,20.70
2023-04-15T11:21:07.753Z,20.94
2023-04-15T11:26:14.221Z,20.58
2023-04-15T11:31:20.419Z,20.35
2023-04-15T11:36:28.251Z,19.90
2023-04-15T11:41:32.209Z,20.71
2023-04-15T11:46:36.002Z,20.62
2023-04-15T11:51:39.881Z,19.98
2023-04-15T11:56:42.350Z,20.57
2023-04-15T12:01:46.987Z,20.35
2023-04-15T12:06:49.913Z,20.17
2023-04-15T12:11:56.074Z,20.64
2023-04-15T12:17:03.311Z,20.05
2023-04-15T12:22:16.152Z,20.29
2023-04-15T12:27:29.799Z,20.53
2023-04-15T12:32:47.936Z,20.21
2023-04-15T12:37:57.823Z,20.47
2023-04-15T12:48:37.923Z,20.59
2023-04-15T12:53:47.439Z,20.76
2023-04-15T12:58:55.041Z,20.74
2023-04-15T13:04:15.202Z,20.84
2023-04-15T13:09:29.379Z,20.81
2023-04-15T13:14:37.775Z,20.89
2023-04-15T13:19:59.991Z,20.57
2023-04-15T13:25:22.632Z,19.85
2023-04-15T13:30:52.254Z,20.07
2023-04-15T13:36:01.743Z,20.42
2023-04-15T13:46:52.698Z,20.19
2023-04-15T13:52:15.154Z,20.16
2023-04-15T14:03:01.936Z,20.67
2023-04-15T14:08:10.020Z,20.11
2023-04-15T14:19:00.566Z,20.16
2023-04-15T14:24:08.075Z,20.49
2023-04-15T14:29:11.767Z,20.58
2023-04-15T14:34:14.553Z,20.71
2023-04-15T14:39:24.180Z,20.74
2023-04-15T14:44:29.334Z,20.77
2023-04-15T14:49:32.814Z,21.37
2023-04-15T14:54:35.412Z,21.18
2023-04-15T14:59:37.811Z,21.23
2023-04-15T15:04:41.083Z,21.44
2023-04-15T15:09:43.576Z,21.13
2023-04-15T15:14:47.018Z,21.42
2023-04-15T15:19:49.440Z,21.37
2023-04-15T15:24:52.064Z,21.63
2023-04-15T15:30:11.349Z,21.54
2023-04-15T15:35:16.985Z,21.88
2023-04-15T15:40:19.567Z,21.98
2023-04-15T15:45:22.468Z,22.27
2023-04-15T15:50:24.865Z,22.04
2023-04-15T15:55:27.883Z,22.27
2023-04-15T16:00:30.372Z,22.13
2023-04-15T16:05:32.737Z,22.66
2023-04-15T16:10:35.473Z,22.84
2023-04-15T16:15:38.069Z,23.00
2023-04-15T16:20:40.711Z,22.75
2023-04-15T16:25:44.468Z,23.09
2023-04-15T16:31:02.274Z,23.80
2023-04-15T16:36:07.304Z,23.69
2023-04-15T16:41:10.068Z,24.29
2023-04-15T16:46:12.461Z,24.57
2023-04-15T16:51:14.836Z,24.86
2023-04-15T16:56:17.340Z,25.71
2023-04-15T17:01:20.748Z,25.87
2023-04-15T17:06:23.196Z,25.89
2023-04-15T17:11:26.474Z,26.03
2023-04-15T17:16:30.853Z,26.29
2023-04-15T17:21:33.477Z,26.90
2023-04-15T17:26:37.839Z,27.08
2023-04-15T17:32:04.045Z,27.33
2023-04-15T17:37:29.408Z,27.50
2023-04-15T17:42:51.787Z,27.62
2023-04-15T17:48:14.749Z,28.20
2023-04-15T17:53:40.134Z,28.64
2023-04-15T17:59:06.283Z,29.13
2023-04-15T18:04:31.620Z,28.63
2023-04-15T18:09:56.193Z,28.69
2023-04-15T18:15:19.020Z,29.12
2023-04-15T18:20:41.463Z,29.54
2023-04-15T18:25:45.983Z,29.25
2023-04-15T18:30:48.698Z,29.64
2023-04-15T18:35:51.336Z,29.57
2023-04-15T18:40:57.160Z,29.87
2023-04-15T18:46:04.213Z,29.85
2023-04-15T18:51:09.672Z,29.62
2023-04-15T18:56:13.106Z,29.13
2023-04-15T19:01:15.858Z,29.09
2023-04-15T19:06:21.061Z,29.33
2023-04-15T19:11:30.962Z,28.75
2023-04-15T19:16:33.415Z,28.45
2023-04-15T19:21:35.915Z,28.10
2023-04-15T19:26:38.446Z,28.59
2023-04-15T19:31:40.908Z,28.55
2023-04-15T19:36:43.333Z,28.63
2023-04-15T19:41:57.970Z,28.20
2023-04-15T19:47:00.475Z,28.47
2023-04-15T19:52:04.546Z,28.66
2023-04-15T19:57:07.053Z,28.92
2023-04-15T20:02:09.681Z,29.65
2023-04-15T20:07:12.231Z,29.40
2023-04-15T20:12:49.807Z,29.35
2023-04-15T20:17:37.446Z,29.22
2023-04-15T20:22:39.983Z,29.68
2023-04-15T20:27:42.468Z,29.80
2023-04-15T20:32:44.939Z,30.02
2023-04-15T20:37:47.466Z,29.29
2023-04-15T20:42:56.840Z,29.81
2023-04-15T20:47:59.385Z,30.06
2023-04-15T20:53:02.031Z,30.33
2023-04-15T20:58:04.736Z,30.81
2023-04-15T21:03:07.370Z,31.12
2023-04-15T21:08:10.420Z,31.59
2023-04-15T21:13:15.544Z,31.49
2023-04-15T21:18:17.874Z,31.43
2023-04-15T21:23:20.236Z,31.70
2023-04-15T21:28:22.861Z,32.02
2023-04-15T21:33:25.602Z,31.83
2023-04-15T21:38:28.051Z,31.91
2023-04-15T21:43:30.379Z,31.92
2023-04-15T21:48:32.805Z,32.11
2023-04-15T21:53:35.253Z,32.46
2023-04-15T21:58:37.730Z,32.87
2023-04-15T22:03:40.496Z,32.65
2023-04-15T22:08:54.890Z,32.39
2023-04-15T22:13:59.099Z,32.79
2023-04-15T22:19:03.010Z,32.72
2023-04-15T22:24:33.923Z,32.63
2023-04-15T22:29:28.505Z,32.58
2023-04-15T22:34:30.841Z,32.63
2023-04-15T22:39:33.092Z,32.78
2023-04-15T22:44:35.354Z,32.75
2023-04-15T22:49:37.646Z,32.55
2023-04-15T22:54:42.667Z,32.52
2023-04-15T22:59:45.011Z,32.71
2023-04-15T23:04:47.458Z,32.85
2023-04-15T23:09:49.808Z,32.52
2023-04-15T23:14:52.066Z,32.78
2023-04-15T23:19:54.341Z,32.62
2023-04-15T23:24:56.867Z,32.71
2023-04-15T23:29:59.288Z,32.72
2023-04-15T23:35:02.288Z,32.85
2023-04-15T23:40:06.823Z,32.96
2023-04-15T23:45:10.211Z,32.99
2023-04-15T23:50:21.609Z,33.90
2023-04-15T23:55:26.824Z,33.65
